Time;durP1;ratioP1;P1;durP2;ratioP2;P2;SDS_P1;SDS_P2;PMS_P1;PMS_P2;Temp;Humidity;BMP_temperature;BMP_pressure;BME280_temperature;BME280_humidity;BME280_pressure;Samples;Min_cycle;Max_cycle;Signal;HPM_P1;HPM_P2
2023/04/06 00:01:51;;;;;;;4.50;1.95;;;3.30;99.90;;;;;;5010409;28;20034;-71
2023/04/06 00:04:16;;;;;;;4.25;1.95;;;3.20;99.90;;;;;;5013582;28;20056;-71
2023/04/06 00:06:42;;;;;;;4.82;1.88;;;3.20;99.90;;;;;;5010240;28;20489;-70
2023/04/06 00:09:08;;;;;;;4.10;2.53;;;3.10;99.90;;;;;;5006939;28;20034;-70
2023/04/06 00:11:34;;;;;;;1.95;1.20;;;2.90;99.90;;;;;;5010171;28;20033;-71
2023/04/06 00:14:00;;;;;;;4.80;3.10;;;2.60;99.90;;;;;;5013371;28;20068;-71
2023/04/06 00:16:26;;;;;;;4.30;2.25;;;2.60;99.90;;;;;;5004512;28;20386;-70
2023/04/06 00:18:52;;;;;;;4.15;2.22;;;2.60;99.90;;;;;;5013612;28;20478;-70
2023/04/06 00:21:17;;;;;;;6.80;2.38;;;2.60;99.90;;;;;;4988916;28;20113;-70
2023/04/06 00:23:43;;;;;;;3.92;1.88;;;2.70;99.90;;;;;;5003773;28;20041;-71
2023/04/06 00:26:10;;;;;;;2.55;1.77;;;2.70;99.90;;;;;;5009959;28;20041;-71
2023/04/06 00:28:37;;;;;;;3.42;1.83;;;2.60;99.90;;;;;;5013530;28;20038;-70
2023/04/06 00:31:03;;;;;;;3.47;2.25;;;2.60;99.90;;;;;;5009587;28;20026;-70
2023/04/06 00:33:29;;;;;;;2.88;1.90;;;2.70;99.90;;;;;;5013326;28;20025;-71
2023/04/06 00:35:55;;;;;;;6.20;2.25;;;2.50;99.90;;;;;;5003100;28;20092;-71
2023/04/06 00:38:22;;;;;;;6.22;2.83;;;2.60;99.90;;;;;;5003824;28;20040;-70
2023/04/06 00:40:47;;;;;;;10.82;3.20;;;2.60;99.90;;;;;;5004536;28;20381;-72
2023/04/06 00:43:14;;;;;;;6.88;3.33;;;2.70;99.90;;;;;;5013104;28;20080;-71
2023/04/06 00:45:41;;;;;;;7.65;3.20;;;2.70;99.90;;;;;;5009342;28;20026;-71
2023/04/06 00:48:08;;;;;;;5.40;2.35;;;2.80;99.90;;;;;;5003971;28;20511;-71
2023/04/06 00:50:35;;;;;;;2.90;1.73;;;2.80;99.90;;;;;;5005623;28;20039;-71
2023/04/06 00:53:01;;;;;;;7.88;3.33;;;2.80;99.90;;;;;;5003531;28;20145;-71
2023/04/06 00:55:28;;;;;;;4.30;2.85;;;2.80;99.90;;;;;;5009630;28;20069;-71
2023/04/06 00:57:56;;;;;;;6.82;2.72;;;2.60;99.90;;;;;;5003558;28;20470;-71
2023/04/06 01:00:22;;;;;;;3.53;2.58;;;2.60;99.90;;;;;;5009516;28;20478;-70
2023/04/06 01:02:48;;;;;;;7.55;3.47;;;2.60;99.90;;;;;;4994936;28;20038;-71
2023/04/06 01:05:15;;;;;;;7.10;3.70;;;2.60;99.90;;;;;;5009078;28;20026;-70
2023/04/06 01:07:41;;;;;;;6.20;3.08;;;2.60;99.90;;;;;;4992277;28;20046;-71
2023/04/06 01:10:07;;;;;;;7.85;3.72;;;2.60;99.90;;;;;;5008065;28;20454;-71
2023/04/06 01:12:33;;;;;;;10.32;3.70;;;2.60;99.90;;;;;;5000671;28;20080;-71
2023/04/06 01:14:59;;;;;;;10.20;4.70;;;2.70;99.90;;;;;;4975467;28;20030;-71
2023/04/06 01:17:25;;;;;;;6.25;3.85;;;2.80;99.90;;;;;;5002759;28;20030;-70
2023/04/06 01:19:53;;;;;;;10.18;4.35;;;2.80;99.90;;;;;;5011409;28;20040;-71
2023/04/06 01:22:19;;;;;;;6.60;3.47;;;2.80;99.90;;;;;;5009337;28;20033;-70
2023/04/06 01:24:46;;;;;;;15.95;4.28;;;2.70;99.90;;;;;;5010693;28;20056;-70
2023/04/06 01:27:12;;;;;;;8.05;3.28;;;2.80;99.90;;;;;;5008911;28;20485;-70
2023/04/06 01:29:41;;;;;;;6.88;2.60;;;2.80;99.90;;;;;;5010067;28;20081;-70
2023/04/06 01:32:08;;;;;;;8.68;3.25;;;2.70;99.90;;;;;;5001499;28;20036;-70
2023/04/06 01:34:34;;;;;;;7.57;3.58;;;2.70;99.90;;;;;;4994899;28;20052;-71
2023/04/06 01:37:00;;;;;;;6.80;3.50;;;2.70;99.90;;;;;;4998610;28;20370;-70
2023/04/06 01:39:26;;;;;;;7.03;3.50;;;2.70;99.90;;;;;;5012822;28;20048;-70
2023/04/06 01:41:52;;;;;;;7.47;3.08;;;2.60;99.90;;;;;;5011865;28;20041;-70
2023/04/06 01:44:18;;;;;;;6.80;3.08;;;2.70;99.90;;;;;;5012187;28;20092;-71
2023/04/06 01:46:45;;;;;;;6.68;2.72;;;2.70;99.90;;;;;;5002871;28;20034;-70
2023/04/06 01:49:12;;;;;;;15.90;3.38;;;2.70;99.90;;;;;;5005871;28;20037;-71
2023/04/06 01:51:38;;;;;;;6.15;3.35;;;2.70;99.90;;;;;;5008195;28;20037;-71
2023/04/06 01:54:04;;;;;;;4.82;2.60;;;2.70;99.90;;;;;;4988241;28;20034;-71
2023/04/06 01:56:31;;;;;;;4.45;2.85;;;2.70;99.90;;;;;;4986471;28;20135;-71
2023/04/06 01:58:57;;;;;;;7.90;2.53;;;2.70;99.90;;;;;;5012504;28;20545;-71
2023/04/06 02:01:22;;;;;;;9.45;3.80;;;2.60;99.90;;;;;;5008540;28;20030;-70
2023/04/06 02:03:48;;;;;;;7.70;3.25;;;2.60;99.90;;;;;;5002199;28;20041;-71
2023/04/06 02:06:14;;;;;;;8.95;3.83;;;2.60;99.90;;;;;;5008305;28;20034;-71
2023/04/06 02:08:40;;;;;;;7.32;3.95;;;2.50;99.90;;;;;;5011388;28;20100;-73
2023/04/06 02:11:06;;;;;;;8.18;3.95;;;2.50;99.90;;;;;;5007989;28;20030;-71
2023/04/06 02:13:31;;;;;;;10.07;3.78;;;2.50;99.90;;;;;;5011114;28;20045;-70
2023/04/06 02:15:57;;;;;;;7.30;3.75;;;2.50;99.90;;;;;;5008086;28;20030;-72
2023/04/06 02:18:23;;;;;;;7.63;3.72;;;2.40;99.90;;;;;;5001805;28;20022;-71
2023/04/06 02:20:49;;;;;;;4.60;2.83;;;2.30;99.90;;;;;;5008071;28;20124;-72
2023/04/06 02:23:15;;;;;;;7.22;3.35;;;2.00;99.90;;;;;;5001591;28;20088;-71
2023/04/06 02:25:41;;;;;;;6.55;3.10;;;1.70;99.90;;;;;;5007968;28;20380;-71
2023/04/06 02:28:07;;;;;;;6.07;3.05;;;1.50;99.90;;;;;;5001436;28;20030;-70
2023/04/06 02:30:33;;;;;;;11.20;4.30;;;1.30;99.90;;;;;;5007766;28;20033;-71
2023/04/06 02:33:00;;;;;;;8.80;4.25;;;1.40;99.90;;;;;;5011313;28;20037;-71
2023/04/06 02:35:29;;;;;;;7.22;3.25;;;1.50;99.90;;;;;;5005233;28;20170;-70
2023/04/06 02:37:55;;;;;;;7.45;3.90;;;1.50;99.90;;;;;;5001518;28;20026;-71
2023/04/06 02:40:21;;;;;;;7.85;3.67;;;1.60;99.90;;;;;;5006578;28;20036;-71
2023/04/06 02:42:46;;;;;;;5.88;3.83;;;1.70;99.90;;;;;;5010273;28;20036;-71
2023/04/06 02:45:12;;;;;;;16.45;4.75;;;1.80;99.90;;;;;;5029107;23;20529;-67
2023/04/06 02:47:38;;;;;;;5.00;2.53;;;1.90;99.90;;;;;;5009406;28;20033;-67
2023/04/06 02:50:05;;;;;;;9.25;4.00;;;2.00;99.90;;;;;;5009557;28;20101;-67
2023/04/06 02:52:31;;;;;;;9.52;3.90;;;2.00;99.90;;;;;;5008972;28;20390;-67
2023/04/06 02:54:57;;;;;;;6.43;3.80;;;1.90;99.90;;;;;;5008939;28;20070;-67
2023/04/06 02:57:23;;;;;;;8.25;4.25;;;1.60;99.90;;;;;;5010279;28;20517;-67
2023/04/06 02:59:49;;;;;;;5.22;3.03;;;1.60;99.90;;;;;;5009157;28;20034;-67
2023/04/06 03:02:15;;;;;;;5.63;3.30;;;1.60;99.90;;;;;;4998141;28;20076;-67
2023/04/06 03:04:41;;;;;;;5.10;3.22;;;1.60;99.90;;;;;;5007218;28;20030;-67
2023/04/06 03:07:07;;;;;;;6.32;3.90;;;1.70;99.90;;;;;;5015685;28;20030;-67
2023/04/06 03:09:33;;;;;;;6.95;3.17;;;1.70;99.90;;;;;;5008726;28;20088;-67
2023/04/06 03:11:59;;;;;;;7.32;3.40;;;1.80;99.90;;;;;;4993085;28;20056;-67
2023/04/06 03:14:27;;;;;;;5.50;3.28;;;1.90;99.90;;;;;;5005813;28;20622;-67
2023/04/06 03:16:52;;;;;;;7.93;4.60;;;2.00;99.90;;;;;;5010893;28;20041;-67
2023/04/06 03:19:18;;;;;;;5.68;3.92;;;2.00;99.90;;;;;;5004855;28;20030;-67
2023/04/06 03:21:44;;;;;;;6.93;3.83;;;2.00;99.90;;;;;;5009708;28;20037;-67
2023/04/06 03:24:10;;;;;;;6.47;3.85;;;2.00;99.90;;;;;;5008026;28;20084;-67
2023/04/06 03:26:35;;;;;;;11.50;3.97;;;2.00;99.90;;;;;;5010750;28;20041;-67
2023/04/06 03:29:01;;;;;;;5.05;2.72;;;2.00;99.90;;;;;;4989980;28;20486;-67
2023/04/06 03:31:27;;;;;;;4.88;3.03;;;2.10;99.90;;;;;;5010363;28;20041;-67
2023/04/06 03:33:53;;;;;;;11.48;4.47;;;2.00;99.90;;;;;;5007489;28;20026;-67
2023/04/06 03:36:19;;;;;;;6.63;3.72;;;2.10;99.90;;;;;;5010254;28;20037;-67
2023/04/06 03:38:45;;;;;;;6.38;3.80;;;2.10;99.90;;;;;;4990251;28;20088;-67
2023/04/06 03:41:10;;;;;;;8.50;3.25;;;2.10;99.90;;;;;;5010565;28;20095;-67
2023/04/06 03:43:36;;;;;;;7.93;4.15;;;2.00;99.90;;;;;;4989695;28;20030;-67
2023/04/06 03:46:02;;;;;;;8.32;3.85;;;1.90;99.90;;;;;;5010213;28;20117;-67
2023/04/06 03:48:28;;;;;;;12.50;3.75;;;1.90;99.90;;;;;;5007712;28;20088;-67
2023/04/06 03:50:53;;;;;;;13.48;4.13;;;1.80;99.90;;;;;;5010475;28;20041;-68
2023/04/06 03:53:19;;;;;;;9.45;2.92;;;1.60;99.90;;;;;;5007879;28;20034;-67
2023/04/06 03:55:45;;;;;;;6.35;3.38;;;1.60;99.90;;;;;;5010211;28;20065;-67
2023/04/06 03:58:11;;;;;;;8.65;3.92;;;1.60;99.90;;;;;;5008106;28;20061;-67
2023/04/06 04:00:37;;;;;;;9.35;3.58;;;1.60;99.90;;;;;;5010184;28;20478;-67
2023/04/06 04:03:03;;;;;;;4.53;3.00;;;1.60;99.90;;;;;;5007752;28;20137;-67
2023/04/06 04:05:28;;;;;;;11.40;4.18;;;1.60;99.90;;;;;;5009932;28;20141;-67
2023/04/06 04:07:55;;;;;;;7.63;3.53;;;1.60;99.90;;;;;;4990039;28;20401;-67
2023/04/06 04:10:21;;;;;;;7.40;3.63;;;1.50;99.90;;;;;;5003375;28;20080;-67
2023/04/06 04:12:46;;;;;;;14.32;5.70;;;1.50;99.90;;;;;;4993476;28;20553;-67
2023/04/06 04:15:12;;;;;;;5.63;4.00;;;1.50;99.90;;;;;;5011328;28;20026;-67
2023/04/06 04:17:38;;;;;;;5.53;3.05;;;1.50;99.90;;;;;;5011649;28;20034;-67
2023/04/06 04:20:05;;;;;;;6.25;3.42;;;1.50;99.90;;;;;;5013177;28;20064;-67
2023/04/06 04:22:31;;;;;;;9.20;3.63;;;1.50;99.90;;;;;;4993877;28;20033;-67
2023/04/06 04:24:57;;;;;;;7.43;3.70;;;1.50;99.90;;;;;;5012986;28;20112;-67
2023/04/06 04:27:23;;;;;;;9.00;2.92;;;1.60;99.90;;;;;;5011411;28;20164;-67
2023/04/06 04:29:48;;;;;;;7.40;4.30;;;1.70;99.90;;;;;;5013002;28;20040;-67
2023/04/06 04:32:15;;;;;;;13.30;5.10;;;1.70;99.90;;;;;;5012568;28;20474;-67
2023/04/06 04:34:41;;;;;;;14.40;4.18;;;1.70;99.90;;;;;;5010074;28;20648;-67
2023/04/06 04:37:06;;;;;;;12.65;4.07;;;1.60;99.90;;;;;;5013336;28;20108;-67
2023/04/06 04:39:32;;;;;;;29.25;12.00;;;1.60;99.90;;;;;;5011332;28;20040;-67
2023/04/06 04:41:58;;;;;;;7.47;4.53;;;1.60;99.90;;;;;;5009638;28;20464;-66
2023/04/06 04:44:24;;;;;;;7.68;2.88;;;1.50;99.90;;;;;;4991613;28;20442;-66
2023/04/06 04:46:50;;;;;;;11.10;2.95;;;1.50;99.90;;;;;;4993402;28;20041;-66
2023/04/06 04:49:16;;;;;;;6.38;3.78;;;1.50;99.90;;;;;;4979428;28;20058;-66
2023/04/06 04:51:41;;;;;;;6.88;3.45;;;1.50;99.90;;;;;;4991557;28;20033;-66
2023/04/06 04:54:07;;;;;;;6.13;3.28;;;1.60;99.90;;;;;;5008509;28;20037;-67
2023/04/06 04:56:33;;;;;;;10.32;3.97;;;1.50;99.90;;;;;;5008383;28;20041;-68
2023/04/06 04:58:59;;;;;;;13.18;3.78;;;1.50;99.90;;;;;;4976692;28;20116;-68
2023/04/06 05:01:24;;;;;;;8.98;3.83;;;1.50;99.90;;;;;;5012471;28;20033;-68
2023/04/06 05:03:50;;;;;;;5.47;3.28;;;1.60;99.90;;;;;;5010097;28;20092;-68
2023/04/06 05:06:16;;;;;;;3.67;2.55;;;1.60;99.90;;;;;;5012208;28;20110;-68
2023/04/06 05:08:42;;;;;;;5.88;3.30;;;1.50;99.90;;;;;;5010233;28;20034;-68
2023/04/06 05:11:09;;;;;;;8.25;3.72;;;1.50;99.90;;;;;;5016856;28;20030;-68
2023/04/06 05:13:35;;;;;;;8.93;3.53;;;1.60;99.90;;;;;;4992022;28;20564;-68
2023/04/06 05:16:04;;;;;;;8.52;4.13;;;1.60;99.90;;;;;;5010729;28;20034;-68
2023/04/06 05:18:30;;;;;;;6.35;4.07;;;1.70;99.90;;;;;;5001938;28;20021;-68
2023/04/06 05:20:56;;;;;;;6.38;3.40;;;1.50;99.90;;;;;;4994276;28;20554;-67
2023/04/06 05:23:21;;;;;;;9.95;3.17;;;1.40;99.90;;;;;;4996403;28;20022;-68
2023/04/06 05:25:47;;;;;;;6.10;3.58;;;1.50;99.90;;;;;;5011759;28;20033;-68
2023/04/06 05:28:15;;;;;;;4.57;2.70;;;1.50;99.90;;;;;;4992057;28;20033;-67
2023/04/06 05:30:41;;;;;;;4.90;3.35;;;1.40;99.90;;;;;;4994564;28;20092;-72
2023/04/06 05:33:07;;;;;;;4.88;3.20;;;1.40;99.90;;;;;;5009372;28;20037;-67
2023/04/06 05:35:33;;;;;;;11.68;4.88;;;1.30;99.90;;;;;;4994317;28;20096;-67
2023/04/06 05:37:59;;;;;;;9.45;3.53;;;1.40;99.90;;;;;;5009789;28;20426;-66
2023/04/06 05:40:25;;;;;;;5.63;3.00;;;1.40;99.90;;;;;;5011838;28;20030;-69
2023/04/06 05:42:51;;;;;;;5.45;3.15;;;1.50;99.90;;;;;;5009746;28;20030;-66
2023/04/06 05:45:18;;;;;;;5.63;3.47;;;1.60;99.90;;;;;;5002246;28;20037;-66
2023/04/06 05:47:44;;;;;;;9.50;3.67;;;1.60;99.90;;;;;;5009356;28;20038;-66
2023/04/06 05:50:11;;;;;;;5.05;3.72;;;1.70;99.90;;;;;;5002365;28;20018;-67
2023/04/06 05:52:37;;;;;;;8.00;3.30;;;1.70;99.90;;;;;;4991114;28;20539;-66
2023/04/06 05:55:04;;;;;;;15.77;4.43;;;1.70;99.90;;;;;;4993683;28;20106;-67
2023/04/06 05:57:30;;;;;;;8.90;3.70;;;1.70;99.90;;;;;;5005248;28;20261;-66
2023/04/06 05:59:56;;;;;;;7.80;3.35;;;1.80;99.90;;;;;;5010355;28;20105;-67
2023/04/06 06:02:22;;;;;;;6.88;3.75;;;1.90;99.90;;;;;;4997241;28;20096;-71
2023/04/06 06:04:48;;;;;;;5.13;2.85;;;1.80;99.90;;;;;;5010313;28;20025;-69
2023/04/06 06:07:14;;;;;;;7.25;3.25;;;2.00;99.90;;;;;;4991418;28;20380;-67
2023/04/06 06:09:40;;;;;;;9.80;4.22;;;2.10;99.90;;;;;;5006186;28;20030;-67
2023/04/06 06:12:07;;;;;;;6.43;3.90;;;2.20;99.90;;;;;;4990120;28;20026;-67
2023/04/06 06:14:33;;;;;;;12.00;4.82;;;2.30;99.90;;;;;;5008458;28;20393;-67
2023/04/06 06:16:58;;;;;;;6.55;3.45;;;2.30;99.90;;;;;;5010902;28;20029;-66
2023/04/06 06:19:24;;;;;;;5.75;4.00;;;2.30;99.90;;;;;;4990071;28;20038;-66
2023/04/06 06:21:50;;;;;;;6.32;3.22;;;2.40;99.90;;;;;;5010747;28;20121;-66
2023/04/06 06:24:16;;;;;;;9.60;4.22;;;2.40;99.90;;;;;;5008370;28;20110;-66
2023/04/06 06:26:42;;;;;;;7.78;3.85;;;2.40;99.90;;;;;;5010714;28;20060;-66
2023/04/06 06:29:08;;;;;;;7.03;3.67;;;2.50;99.90;;;;;;5008664;28;20127;-66
2023/04/06 06:31:35;;;;;;;9.60;3.88;;;2.70;99.90;;;;;;5010693;28;20036;-66
2023/04/06 06:34:01;;;;;;;4.53;2.55;;;2.70;99.90;;;;;;5007381;28;20040;-67
2023/04/06 06:36:27;;;;;;;5.30;2.72;;;2.80;99.90;;;;;;5010592;28;20112;-67
2023/04/06 06:38:53;;;;;;;6.43;3.17;;;3.00;99.90;;;;;;5008031;28;20465;-66
2023/04/06 06:41:19;;;;;;;11.95;3.95;;;3.00;99.90;;;;;;5010687;28;20065;-68
2023/04/06 06:43:45;;;;;;;6.88;3.53;;;3.10;99.90;;;;;;5008009;28;20038;-66
2023/04/06 06:46:11;;;;;;;7.30;4.70;;;3.20;99.90;;;;;;5010523;28;20113;-66
2023/04/06 06:48:36;;;;;;;9.18;3.47;;;3.40;99.90;;;;;;4990102;28;20060;-66
2023/04/06 06:51:03;;;;;;;5.68;3.40;;;3.50;99.90;;;;;;5010429;28;20033;-66
2023/04/06 06:53:28;;;;;;;5.50;3.10;;;3.60;99.90;;;;;;4989886;28;20108;-66
2023/04/06 06:55:54;;;;;;;6.88;4.28;;;3.70;99.90;;;;;;4984207;28;20113;-66
2023/04/06 06:58:20;;;;;;;6.00;3.40;;;3.80;99.90;;;;;;5008589;28;20034;-65
2023/04/06 07:00:46;;;;;;;10.35;3.40;;;3.80;99.90;;;;;;5005426;28;20085;-66
2023/04/06 07:03:12;;;;;;;8.30;3.95;;;3.90;99.90;;;;;;5004893;28;20029;-66
2023/04/06 07:05:38;;;;;;;7.22;3.90;;;4.00;99.90;;;;;;4992491;28;20034;-66
2023/04/06 07:08:04;;;;;;;8.32;4.10;;;4.20;99.90;;;;;;4999433;28;20085;-66
2023/04/06 07:10:30;;;;;;;8.55;3.38;;;4.20;99.90;;;;;;4990024;28;20026;-66
2023/04/06 07:12:56;;;;;;;8.35;4.07;;;4.40;99.90;;;;;;5004322;28;20087;-66
2023/04/06 07:15:22;;;;;;;14.75;4.57;;;4.50;99.90;;;;;;5010125;28;20022;-70
2023/04/06 07:17:48;;;;;;;5.40;3.20;;;4.60;99.90;;;;;;4986411;28;20036;-67
2023/04/06 07:20:14;;;;;;;9.13;3.75;;;4.70;99.90;;;;;;5009578;28;20093;-68
2023/04/06 07:22:43;;;;;;;6.80;4.03;;;4.80;99.90;;;;;;4974328;28;20099;-68
2023/04/06 07:25:09;;;;;;;5.45;3.92;;;4.90;99.90;;;;;;4992637;28;20036;-68
2023/04/06 07:27:35;;;;;;;6.70;3.88;;;4.90;99.90;;;;;;4986850;28;20069;-67
2023/04/06 07:30:00;;;;;;;10.55;3.53;;;5.00;99.90;;;;;;5009704;28;20068;-66
2023/04/06 07:32:26;;;;;;;7.55;3.47;;;5.10;99.90;;;;;;5004529;28;20143;-67
2023/04/06 07:34:52;;;;;;;10.73;4.30;;;5.10;99.90;;;;;;5009431;28;20072;-67
2023/04/06 07:37:18;;;;;;;10.02;3.33;;;5.20;99.90;;;;;;4986316;28;20393;-67
2023/04/06 07:39:43;;;;;;;10.27;3.55;;;5.30;99.90;;;;;;4991817;28;20070;-73
2023/04/06 07:42:09;;;;;;;7.45;4.30;;;5.40;99.90;;;;;;5004251;28;20105;-71
2023/04/06 07:44:35;;;;;;;7.53;4.00;;;5.50;99.90;;;;;;5011250;28;20032;-70
2023/04/06 07:47:01;;;;;;;9.48;3.30;;;5.60;99.90;;;;;;5007985;28;20033;-70
2023/04/06 07:49:27;;;;;;;9.60;4.22;;;5.70;99.90;;;;;;5013400;28;20474;-70
2023/04/06 07:51:53;;;;;;;22.70;5.93;;;5.80;99.90;;;;;;5010553;28;20104;-71
2023/04/06 07:54:19;;;;;;;5.60;3.38;;;5.80;99.90;;;;;;5012613;28;20478;-70
2023/04/06 07:56:45;;;;;;;7.78;3.47;;;5.90;99.90;;;;;;5007183;28;20046;-69
2023/04/06 07:59:11;;;;;;;10.65;3.42;;;6.00;99.90;;;;;;5013102;28;20018;-70
2023/04/06 08:01:37;;;;;;;6.18;2.72;;;6.10;99.90;;;;;;5007526;28;20073;-70
2023/04/06 08:04:03;;;;;;;10.38;3.33;;;6.10;99.90;;;;;;5012275;28;20374;-70
2023/04/06 08:06:29;;;;;;;5.82;3.42;;;6.30;99.90;;;;;;5007489;28;20048;-74
2023/04/06 08:08:54;;;;;;;6.45;3.30;;;6.40;99.90;;;;;;5012746;28;20029;-70
2023/04/06 08:11:21;;;;;;;10.85;4.70;;;6.50;99.90;;;;;;5008012;28;20037;-70
2023/04/06 08:13:47;;;;;;;9.48;3.65;;;6.40;99.90;;;;;;5012299;28;20026;-71
2023/04/06 08:16:12;;;;;;;8.05;4.25;;;6.50;99.90;;;;;;5008847;28;20084;-71
2023/04/06 08:18:38;;;;;;;10.00;4.03;;;6.60;99.90;;;;;;5011469;28;20030;-70
2023/04/06 08:21:04;;;;;;;13.38;3.83;;;6.70;99.90;;;;;;5010948;28;20022;-70
2023/04/06 08:23:30;;;;;;;10.07;3.88;;;6.80;99.90;;;;;;5012575;28;20438;-71
2023/04/06 08:25:56;;;;;;;4.97;2.97;;;6.80;99.90;;;;;;5012434;28;20030;-71
2023/04/06 08:28:22;;;;;;;7.85;3.42;;;7.00;99.90;;;;;;5011872;28;20022;-64
2023/04/06 08:30:48;;;;;;;8.60;3.67;;;7.10;99.90;;;;;;5010974;28;20397;-71
2023/04/06 08:33:15;;;;;;;11.30;3.70;;;7.20;99.90;;;;;;5007504;28;20107;-70
2023/04/06 08:35:41;;;;;;;6.30;3.40;;;7.20;99.90;;;;;;5012643;28;20034;-70
2023/04/06 08:38:07;;;;;;;5.53;2.70;;;7.40;99.90;;;;;;4989361;28;20033;-69
2023/04/06 08:40:37;;;;;;;7.45;3.45;;;7.40;99.90;;;;;;5012240;28;20040;-70
2023/04/06 08:43:08;;;;;;;8.07;4.33;;;7.70;99.80;;;;;;5006992;28;20030;-70
2023/04/06 08:45:35;;;;;;;8.93;4.07;;;7.90;98.90;;;;;;4995078;28;20037;-67
2023/04/06 08:48:02;;;;;;;12.35;3.97;;;7.90;97.80;;;;;;5005971;28;20116;-70
2023/04/06 08:50:30;;;;;;;15.13;4.20;;;7.90;98.30;;;;;;5009499;23;20077;-72
2023/04/06 08:52:56;;;;;;;11.90;4.40;;;8.00;99.30;;;;;;5009360;28;20121;-70
2023/04/06 08:55:22;;;;;;;9.57;3.42;;;8.10;99.10;;;;;;5009345;28;20450;-72
2023/04/06 08:57:49;;;;;;;5.20;2.92;;;8.20;98.70;;;;;;5010970;28;20065;-69
2023/04/06 09:00:16;;;;;;;9.68;3.45;;;8.30;97.70;;;;;;5002135;28;20029;-72
2023/04/06 09:02:47;;;;;;;9.07;3.88;;;8.50;98.80;;;;;;4994333;28;20588;-71
2023/04/06 09:05:13;;;;;;;8.05;3.92;;;8.60;97.40;;;;;;4992214;28;20121;-70
2023/04/06 09:07:39;;;;;;;6.38;3.22;;;8.60;96.60;;;;;;4994265;28;20034;-72
2023/04/06 09:10:06;;;;;;;5.78;3.47;;;8.60;96.90;;;;;;5011417;28;20489;-70
2023/04/06 09:12:32;;;;;;;6.90;3.67;;;8.70;97.30;;;;;;5012055;28;20041;-71
2023/04/06 09:15:00;;;;;;;5.03;2.90;;;8.70;97.60;;;;;;5011708;28;20029;-70
2023/04/06 09:17:33;;;;;;;13.48;4.00;;;8.90;97.00;;;;;;5010576;28;20035;-72
2023/04/06 09:20:00;;;;;;;5.30;3.22;;;9.10;97.60;;;;;;4994883;28;20044;-73
2023/04/06 09:22:37;;;;;;;8.23;3.45;;;9.10;95.90;;;;;;4994879;28;20026;-69
2023/04/06 09:25:03;;;;;;;6.00;3.72;;;9.10;96.40;;;;;;5011217;28;20080;-71
2023/04/06 09:27:34;;;;;;;6.40;3.53;;;9.20;96.60;;;;;;5009495;28;20422;-72
2023/04/06 09:30:16;;;;;;;4.60;2.75;;;9.40;96.30;;;;;;4977789;28;20045;-73
2023/04/06 09:32:54;;;;;;;5.65;3.10;;;9.60;95.70;;;;;;5010341;28;20038;-72
2023/04/06 09:35:21;;;;;;;7.22;3.30;;;9.80;95.80;;;;;;5011489;28;20659;-72
2023/04/06 09:37:51;;;;;;;10.10;3.58;;;10.10;95.80;;;;;;5012215;28;20116;-71
2023/04/06 09:40:18;;;;;;;5.47;2.53;;;10.20;95.70;;;;;;5011216;28;20501;-70
2023/04/06 09:42:52;;;;;;;9.68;4.03;;;10.20;95.50;;;;;;4994114;28;20049;-71
2023/04/06 09:45:18;;;;;;;13.20;2.88;;;10.10;94.20;;;;;;4994010;28;20339;-70
2023/04/06 09:47:45;;;;;;;5.93;3.15;;;10.30;93.90;;;;;;4994135;28;20710;-71
2023/04/06 09:50:13;;;;;;;5.88;2.53;;;10.30;93.10;;;;;;5010761;28;20061;-71
2023/04/06 09:52:54;;;;;;;7.30;2.88;;;10.20;93.70;;;;;;5011620;28;20372;-71
2023/04/06 09:55:42;;;;;;;6.38;2.60;;;10.40;93.50;;;;;;4993832;28;20026;-71
2023/04/06 09:58:12;;;;;;;7.72;4.25;;;10.60;93.20;;;;;;4988528;28;20390;-70
2023/04/06 10:01:05;;;;;;;14.73;4.07;;;10.40;93.70;;;;;;4991124;28;20038;-72
2023/04/06 10:03:56;;;;;;;5.93;3.20;;;10.80;93.00;;;;;;4984013;28;20030;-72
2023/04/06 10:06:27;;;;;;;5.43;2.80;;;10.80;92.50;;;;;;5010686;28;20042;-72
2023/04/06 10:08:56;;;;;;;9.75;3.15;;;11.10;92.40;;;;;;4986332;28;20041;-72
2023/04/06 10:11:22;;;;;;;7.38;3.10;;;11.20;92.10;;;;;;4993052;28;20104;-72
2023/04/06 10:13:49;;;;;;;20.80;4.80;;;11.40;93.40;;;;;;5009313;28;20029;-70
2023/04/06 10:16:16;;;;;;;6.57;2.85;;;11.60;92.20;;;;;;4990632;28;20034;-73
2023/04/06 10:18:50;;;;;;;7.53;3.13;;;11.70;91.80;;;;;;4993507;28;20026;-71
2023/04/06 10:21:23;;;;;;;6.43;2.50;;;11.70;91.10;;;;;;4990355;28;20429;-73
2023/04/06 10:23:57;;;;;;;4.07;2.08;;;11.90;91.00;;;;;;4992636;28;20543;-69
2023/04/06 10:26:23;;;;;;;5.45;2.10;;;12.10;90.80;;;;;;4974522;28;20038;-69
2023/04/06 10:28:50;;;;;;;9.27;3.25;;;12.20;91.30;;;;;;4993488;28;20038;-71
2023/04/06 10:31:28;;;;;;;5.30;2.55;;;12.70;90.30;;;;;;4990318;28;20045;-72
2023/04/06 10:33:58;;;;;;;12.07;3.28;;;12.60;86.40;;;;;;4985543;28;20485;-74
2023/04/06 10:36:33;;;;;;;6.38;3.42;;;12.70;85.40;;;;;;5009538;28;20032;-70
2023/04/06 10:39:02;;;;;;;14.02;3.13;;;12.90;84.80;;;;;;4993138;28;20065;-70
2023/04/06 10:41:47;;;;;;;5.57;3.33;;;12.80;83.40;;;;;;5010069;28;20033;-71
2023/04/06 10:44:24;;;;;;;10.00;3.10;;;12.80;84.00;;;;;;5010303;28;20068;-72
2023/04/06 10:46:55;;;;;;;8.63;2.92;;;12.70;81.80;;;;;;5010372;28;20034;-71
2023/04/06 10:49:21;;;;;;;5.75;2.97;;;12.80;82.90;;;;;;4993179;28;20041;-66
2023/04/06 10:51:54;;;;;;;4.40;2.72;;;13.20;83.90;;;;;;5009858;28;20034;-70
2023/04/06 10:54:22;;;;;;;5.57;2.45;;;13.30;81.60;;;;;;4993220;28;20030;-69
2023/04/06 10:56:48;;;;;;;7.00;3.13;;;13.40;74.90;;;;;;4989348;28;20112;-70
2023/04/06 10:59:22;;;;;;;4.50;2.67;;;13.50;77.20;;;;;;4992792;28;20117;-70
2023/04/06 11:01:48;;;;;;;4.20;2.50;;;13.90;77.30;;;;;;4989426;28;20038;-67
2023/04/06 11:04:19;;;;;;;8.30;2.33;;;13.80;76.00;;;;;;4976444;28;20030;-69
2023/04/06 11:06:50;;;;;;;5.47;2.83;;;14.10;78.40;;;;;;4989192;28;20046;-69
2023/04/06 11:09:27;;;;;;;5.57;2.30;;;14.30;76.60;;;;;;4992930;28;20041;-69
2023/04/06 11:11:53;;;;;;;13.73;3.05;;;14.50;73.80;;;;;;5009540;28;20474;-70
2023/04/06 11:14:19;;;;;;;12.93;2.90;;;14.40;72.60;;;;;;5008701;28;20034;-69
2023/04/06 11:16:50;;;;;;;5.05;2.28;;;14.20;71.80;;;;;;5009620;28;20405;-70
2023/04/06 11:19:17;;;;;;;10.93;2.65;;;14.00;71.70;;;;;;5007009;28;20030;-69
2023/04/06 11:21:49;;;;;;;5.40;2.20;;;14.30;68.90;;;;;;5001784;28;20038;-70
2023/04/06 11:24:25;;;;;;;4.57;2.45;;;14.30;69.30;;;;;;5013959;28;20078;-70
2023/04/06 11:26:55;;;;;;;3.72;2.17;;;14.10;69.90;;;;;;5013514;28;20112;-69
2023/04/06 11:29:31;;;;;;;2.88;1.80;;;14.10;70.00;;;;;;5014085;28;20038;-69
2023/04/06 11:32:06;;;;;;;5.45;2.30;;;14.10;69.10;;;;;;4993527;28;20150;-69
2023/04/06 11:34:40;;;;;;;4.72;2.20;;;14.20;71.40;;;;;;5014057;28;20033;-68
2023/04/06 11:37:11;;;;;;;3.17;1.85;;;14.40;70.30;;;;;;5013566;28;20026;-68
2023/04/06 11:39:52;;;;;;;3.30;1.88;;;14.40;68.80;;;;;;4996657;28;20038;-67
2023/04/06 11:42:26;;;;;;;3.60;2.03;;;14.20;69.00;;;;;;4993256;28;20088;-69
2023/04/06 11:44:55;;;;;;;8.65;2.83;;;14.00;68.30;;;;;;4992812;28;20038;-68
2023/04/06 11:47:33;;;;;;;8.18;2.83;;;14.40;67.70;;;;;;5012077;28;20029;-68
2023/04/06 11:50:08;;;;;;;6.13;2.83;;;14.60;69.40;;;;;;4977089;28;20066;-68
2023/04/06 11:52:34;;;;;;;4.50;2.38;;;15.30;66.90;;;;;;4997135;28;20072;-69
2023/04/06 11:55:15;;;;;;;5.88;2.67;;;15.40;64.70;;;;;;4995905;28;20066;-69
2023/04/06 11:57:42;;;;;;;6.97;3.42;;;15.10;64.10;;;;;;5012363;28;20041;-68
2023/04/06 12:00:09;;;;;;;6.85;3.42;;;14.70;65.40;;;;;;5012908;28;20125;-69
2023/04/06 12:02:39;;;;;;;6.43;2.90;;;14.10;68.00;;;;;;4995847;28;20030;-68
2023/04/06 12:05:06;;;;;;;7.20;2.65;;;14.40;66.60;;;;;;5012841;28;20069;-70
2023/04/06 12:07:33;;;;;;;10.93;3.65;;;14.40;67.20;;;;;;5011947;28;20030;-68
2023/04/06 12:10:01;;;;;;;6.45;3.35;;;14.40;67.80;;;;;;4995643;28;20038;-69
2023/04/06 12:12:27;;;;;;;10.73;3.25;;;15.00;64.70;;;;;;4995079;28;20112;-70
2023/04/06 12:14:52;;;;;;;6.28;3.58;;;15.00;65.30;;;;;;5013445;28;20179;-69
2023/04/06 12:17:20;;;;;;;8.30;3.28;;;15.20;64.40;;;;;;4992563;28;20108;-69
2023/04/06 12:19:46;;;;;;;11.00;3.10;;;14.90;64.90;;;;;;4995581;28;20061;-69
2023/04/06 12:22:12;;;;;;;6.15;2.42;;;14.60;68.30;;;;;;5012795;28;20057;-69
2023/04/06 12:24:38;;;;;;;15.88;3.28;;;15.10;65.40;;;;;;4995403;28;20038;-69
2023/04/06 12:27:03;;;;;;;5.68;3.28;;;14.60;67.10;;;;;;5012197;28;20068;-70
2023/04/06 12:29:29;;;;;;;6.13;2.80;;;14.60;64.90;;;;;;4995239;28;20053;-68
2023/04/06 12:31:56;;;;;;;9.10;3.50;;;15.10;65.90;;;;;;4991189;28;20037;-67
2023/04/06 12:34:21;;;;;;;7.25;3.15;;;15.60;63.50;;;;;;5012414;28;20449;-69
2023/04/06 12:36:47;;;;;;;7.32;3.50;;;15.70;62.40;;;;;;5012109;28;20061;-68
2023/04/06 12:39:13;;;;;;;5.80;3.13;;;15.40;63.00;;;;;;4989544;28;20482;-70
2023/04/06 12:41:41;;;;;;;6.35;3.03;;;15.30;64.00;;;;;;5011293;28;20030;-69
2023/04/06 12:44:07;;;;;;;8.13;3.53;;;15.90;64.10;;;;;;5012278;28;20400;-69
2023/04/06 12:46:33;;;;;;;11.60;3.58;;;16.40;61.90;;;;;;5012724;28;20084;-69
2023/04/06 12:48:59;;;;;;;8.82;3.60;;;16.90;60.70;;;;;;4990143;28;20092;-69
2023/04/06 12:51:27;;;;;;;5.90;3.28;;;16.50;59.20;;;;;;4993161;28;20026;-68
2023/04/06 12:53:54;;;;;;;6.75;3.22;;;17.20;58.70;;;;;;5011870;28;20032;-72